Time;durP1;ratioP1;P1;durP2;ratioP2;P2;SDS_P1;SDS_P2;PMS_P1;PMS_P2;Temp;Humidity;BMP_temperature;BMP_pressure;BME280_temperature;BME280_humidity;BME280_pressure;Samples;Min_cycle;Max_cycle;Signal;HPM_P1;HPM_P2
2024/01/15 00:01:24;;;;;;;5.32;2.42;;;;;;;;;;5088266;28;20052;-78
2024/01/15 00:03:53;;;;;;;2.28;1.90;;;;;;;;;;5088432;28;20087;-78
2024/01/15 00:06:21;;;;;;;3.30;2.13;;;;;;;;;;5089120;28;20122;-78
2024/01/15 00:08:50;;;;;;;5.05;2.58;;;;;;;;;;5090871;28;20071;-79
2024/01/15 00:11:19;;;;;;;5.60;2.53;;;;;;;;;;5088372;28;20101;-78
2024/01/15 00:13:49;;;;;;;4.43;1.90;;;;;;;;;;5090600;28;20040;-77
2024/01/15 00:16:17;;;;;;;2.63;1.95;;;;;;;;;;5092375;28;20048;-78
2024/01/15 00:18:45;;;;;;;3.83;2.58;;;;;;;;;;5090991;28;20389;-78
2024/01/15 00:21:14;;;;;;;3.13;2.33;;;;;;;;;;5083557;28;20063;-78
2024/01/15 00:23:44;;;;;;;4.25;2.35;;;;;;;;;;5089553;28;20047;-78
2024/01/15 00:26:13;;;;;;;6.45;2.95;;;;;;;;;;5087897;28;20079;-79
2024/01/15 00:28:41;;;;;;;4.85;2.50;;;;;;;;;;5090681;28;20096;-79
2024/01/15 00:31:11;;;;;;;4.25;2.72;;;;;;;;;;5100611;28;20051;-79
2024/01/15 00:33:39;;;;;;;5.53;2.70;;;;;;;;;;5073046;28;20045;-79
2024/01/15 00:36:09;;;;;;;8.73;3.30;;;;;;;;;;5086043;28;20056;-78
2024/01/15 00:38:37;;;;;;;6.68;3.35;;;;;;;;;;5076059;28;20047;-79
2024/01/15 00:41:05;;;;;;;7.05;2.85;;;;;;;;;;5088414;28;20045;-79
2024/01/15 00:43:34;;;;;;;6.55;3.17;;;;;;;;;;5087169;28;20046;-78
2024/01/15 00:46:03;;;;;;;5.35;3.10;;;;;;;;;;5083820;28;20078;-79
2024/01/15 00:48:33;;;;;;;8.60;3.60;;;;;;;;;;5081527;28;20542;-79
2024/01/15 00:51:02;;;;;;;5.03;3.10;;;;;;;;;;5085505;28;20152;-78
2024/01/15 00:53:30;;;;;;;9.70;3.47;;;;;;;;;;5075279;28;20052;-79
2024/01/15 00:55:59;;;;;;;7.53;4.13;;;;;;;;;;5088132;28;20505;-79
2024/01/15 00:58:27;;;;;;;6.57;3.47;;;;;;;;;;5096634;28;20056;-79
2024/01/15 01:00:56;;;;;;;8.20;4.25;;;;;;;;;;5081902;28;20085;-79
2024/01/15 01:03:24;;;;;;;9.15;4.13;;;;;;;;;;5075675;28;20056;-79
2024/01/15 01:05:54;;;;;;;9.82;5.57;;;;;;;;;;5082806;28;20554;-78
2024/01/15 01:08:23;;;;;;;11.90;5.40;;;;;;;;;;5079862;28;20055;-79
2024/01/15 01:10:51;;;;;;;11.32;5.20;;;;;;;;;;5077756;28;20044;-78
2024/01/15 01:13:19;;;;;;;8.10;4.43;;;;;;;;;;5077554;28;20340;-78
2024/01/15 01:15:48;;;;;;;10.50;4.57;;;;;;;;;;5083708;28;20044;-78
2024/01/15 01:18:16;;;;;;;8.20;4.78;;;;;;;;;;5076253;28;20131;-78
2024/01/15 01:20:45;;;;;;;8.38;4.10;;;;;;;;;;5085567;28;20040;-78
2024/01/15 01:23:15;;;;;;;9.85;4.95;;;;;;;;;;5090211;28;20048;-78
2024/01/15 01:25:43;;;;;;;5.78;3.35;;;;;;;;;;5086438;28;20052;-79
2024/01/15 01:28:11;;;;;;;5.82;4.10;;;;;;;;;;5080815;28;20079;-79
2024/01/15 01:30:40;;;;;;;8.38;3.80;;;;;;;;;;5085707;28;20048;-78
2024/01/15 01:33:09;;;;;;;5.47;3.33;;;;;;;;;;5090952;28;20101;-78
2024/01/15 01:35:37;;;;;;;7.10;3.45;;;;;;;;;;5089949;28;20048;-79
2024/01/15 01:38:06;;;;;;;6.15;4.05;;;;;;;;;;5089707;28;20405;-79
2024/01/15 01:40:36;;;;;;;7.85;3.70;;;;;;;;;;5085502;28;20040;-78
2024/01/15 01:43:04;;;;;;;8.48;3.10;;;;;;;;;;5087269;28;20125;-78
2024/01/15 01:45:33;;;;;;;12.82;4.07;;;;;;;;;;5091702;28;20048;-79
2024/01/15 01:48:02;;;;;;;4.55;2.97;;;;;;;;;;5089669;28;20060;-79
2024/01/15 01:50:31;;;;;;;5.38;3.22;;;;;;;;;;5089047;28;20044;-78
2024/01/15 01:53:00;;;;;;;7.13;3.67;;;;;;;;;;5085969;28;20048;-79
2024/01/15 01:55:29;;;;;;;4.85;2.60;;;;;;;;;;5091621;28;20109;-78
2024/01/15 01:57:59;;;;;;;5.95;3.00;;;;;;;;;;5082011;28;20117;-78
2024/01/15 02:00:28;;;;;;;3.80;2.38;;;;;;;;;;5082475;28;20044;-79
2024/01/15 02:02:56;;;;;;;6.80;3.22;;;;;;;;;;5084288;28;20040;-79
2024/01/15 02:05:24;;;;;;;5.93;3.47;;;;;;;;;;5080574;28;20052;-78
2024/01/15 02:07:53;;;;;;;5.85;3.40;;;;;;;;;;5089841;28;20068;-79
2024/01/15 02:10:21;;;;;;;6.43;3.75;;;;;;;;;;5089494;28;20129;-78
2024/01/15 02:12:49;;;;;;;7.38;3.05;;;;;;;;;;5085203;28;20087;-78
2024/01/15 02:15:19;;;;;;;6.40;3.30;;;;;;;;;;5081369;28;20064;-79
2024/01/15 02:18:07;;;;;;;5.68;3.28;;;;;;;;;;5087886;28;20043;-79
2024/01/15 02:20:35;;;;;;;5.45;3.28;;;;;;;;;;5085236;28;20520;-78
2024/01/15 02:23:09;;;;;;;8.50;3.85;;;;;;;;;;5087312;28;20048;-79
2024/01/15 02:25:38;;;;;;;8.80;3.63;;;;;;;;;;5086125;28;20048;-79
2024/01/15 02:28:07;;;;;;;6.18;2.83;;;;;;;;;;5084421;28;20141;-79
2024/01/15 02:30:38;;;;;;;6.78;3.30;;;;;;;;;;5089189;28;20048;-79
2024/01/15 02:33:07;;;;;;;6.40;3.05;;;;;;;;;;5080353;28;20047;-79
2024/01/15 02:35:37;;;;;;;7.93;3.30;;;;;;;;;;5084218;28;20062;-79
2024/01/15 02:38:07;;;;;;;5.43;3.17;;;;;;;;;;5081389;28;20060;-79
2024/01/15 02:40:35;;;;;;;5.50;3.22;;;;;;;;;;5088191;28;20044;-79
2024/01/15 02:43:04;;;;;;;9.65;4.18;;;;;;;;;;5088013;28;20223;-78
2024/01/15 02:45:32;;;;;;;4.55;2.80;;;;;;;;;;5089620;28;20109;-78
2024/01/15 02:48:01;;;;;;;7.88;3.80;;;;;;;;;;5086719;28;20051;-79
2024/01/15 02:50:29;;;;;;;6.57;3.15;;;;;;;;;;5080218;28;20067;-78
2024/01/15 02:52:58;;;;;;;7.65;3.95;;;;;;;;;;5082999;28;20428;-78
2024/01/15 02:55:29;;;;;;;7.57;3.85;;;;;;;;;;5088517;28;20054;-78
2024/01/15 02:57:58;;;;;;;8.57;3.58;;;;;;;;;;5088673;28;20052;-78
2024/01/15 03:00:26;;;;;;;7.28;3.70;;;;;;;;;;5087516;28;20124;-79
2024/01/15 03:02:54;;;;;;;10.38;4.43;;;;;;;;;;5087242;28;20051;-79
2024/01/15 03:05:23;;;;;;;6.22;3.65;;;;;;;;;;5086597;28;20051;-78
2024/01/15 03:07:51;;;;;;;6.45;3.22;;;;;;;;;;5085718;28;20048;-78
2024/01/15 03:10:20;;;;;;;8.60;3.80;;;;;;;;;;5089343;28;20040;-78
2024/01/15 03:12:49;;;;;;;8.48;4.07;;;;;;;;;;5089104;28;20105;-78
2024/01/15 03:15:19;;;;;;;8.00;3.97;;;;;;;;;;5088694;28;20531;-79
2024/01/15 03:17:47;;;;;;;8.85;4.07;;;;;;;;;;5084846;28;20075;-79
2024/01/15 03:20:16;;;;;;;6.65;3.47;;;;;;;;;;5089332;28;20044;-79
2024/01/15 03:22:44;;;;;;;10.63;3.83;;;;;;;;;;5078208;28;20059;-79
2024/01/15 03:25:12;;;;;;;5.75;3.10;;;;;;;;;;5086218;28;20097;-79
2024/01/15 03:27:41;;;;;;;6.85;3.33;;;;;;;;;;5081386;28;20093;-78
2024/01/15 03:30:11;;;;;;;6.60;3.28;;;;;;;;;;5073950;28;20051;-79
2024/01/15 03:32:40;;;;;;;7.85;3.55;;;;;;;;;;5078629;28;20468;-79
2024/01/15 03:35:08;;;;;;;9.20;4.07;;;;;;;;;;5073207;28;20048;-79
2024/01/15 03:37:37;;;;;;;7.32;3.97;;;;;;;;;;5086455;28;20052;-79
2024/01/15 03:40:06;;;;;;;8.38;4.15;;;;;;;;;;5088205;28;20048;-78
2024/01/15 03:42:34;;;;;;;8.38;3.75;;;;;;;;;;5088982;28;20048;-79
2024/01/15 03:45:03;;;;;;;7.30;3.75;;;;;;;;;;5093451;28;20458;-79
2024/01/15 03:47:32;;;;;;;5.78;3.38;;;;;;;;;;5092238;28;20562;-79
2024/01/15 03:50:01;;;;;;;6.93;3.60;;;;;;;;;;5090810;28;20052;-79
2024/01/15 03:52:29;;;;;;;5.75;3.47;;;;;;;;;;5089891;28;20661;-79
2024/01/15 03:54:57;;;;;;;6.20;3.33;;;;;;;;;;5089507;28;20083;-80
2024/01/15 03:57:26;;;;;;;7.65;3.83;;;;;;;;;;5083273;28;20135;-78
2024/01/15 03:59:55;;;;;;;4.78;3.05;;;;;;;;;;5088630;28;20091;-79
2024/01/15 04:02:23;;;;;;;8.38;3.63;;;;;;;;;;5092514;28;20589;-78
2024/01/15 04:04:53;;;;;;;10.38;3.42;;;;;;;;;;5089423;28;20079;-79
2024/01/15 04:07:21;;;;;;;9.27;4.05;;;;;;;;;;5081403;28;20059;-79
2024/01/15 04:09:49;;;;;;;7.82;3.60;;;;;;;;;;5092791;28;20404;-79
2024/01/15 04:12:18;;;;;;;6.07;3.03;;;;;;;;;;5090298;28;20059;-79
2024/01/15 04:14:46;;;;;;;4.75;3.08;;;;;;;;;;5078842;28;20044;-79
2024/01/15 04:17:15;;;;;;;7.07;3.17;;;;;;;;;;5090785;28;20075;-80
2024/01/15 04:19:45;;;;;;;7.50;3.60;;;;;;;;;;5089303;28;20084;-79
2024/01/15 04:22:15;;;;;;;6.60;2.95;;;;;;;;;;5086623;28;20044;-79
2024/01/15 04:24:42;;;;;;;7.75;3.78;;;;;;;;;;5091374;28;20479;-80
2024/01/15 04:27:11;;;;;;;6.25;3.80;;;;;;;;;;5090264;28;20119;-80
2024/01/15 04:29:39;;;;;;;5.80;3.75;;;;;;;;;;5090326;28;20036;-80
2024/01/15 04:32:09;;;;;;;6.88;3.80;;;;;;;;;;5088539;28;20076;-79
2024/01/15 04:34:37;;;;;;;6.82;3.88;;;;;;;;;;5089686;28;20139;-79
2024/01/15 04:37:06;;;;;;;7.43;4.30;;;;;;;;;;5091637;28;20048;-78
2024/01/15 04:39:36;;;;;;;7.00;3.17;;;;;;;;;;5091823;28;20045;-79
2024/01/15 04:42:04;;;;;;;8.38;4.03;;;;;;;;;;5088329;28;20128;-80
2024/01/15 04:44:33;;;;;;;6.43;3.20;;;;;;;;;;5090586;28;20063;-81
2024/01/15 04:47:01;;;;;;;6.78;3.72;;;;;;;;;;5084829;28;20087;-79
2024/01/15 04:49:30;;;;;;;6.35;3.65;;;;;;;;;;5083188;28;20040;-79
2024/01/15 04:51:58;;;;;;;5.72;3.03;;;;;;;;;;5090276;28;20101;-79
2024/01/15 04:54:27;;;;;;;7.07;3.20;;;;;;;;;;5089502;28;20390;-79
2024/01/15 04:56:56;;;;;;;6.28;3.70;;;;;;;;;;5089230;28;20055;-80
2024/01/15 04:59:25;;;;;;;5.40;3.15;;;;;;;;;;5079478;28;20048;-79
2024/01/15 05:01:53;;;;;;;5.85;3.22;;;;;;;;;;5088961;28;20052;-79
2024/01/15 05:04:21;;;;;;;9.68;4.07;;;;;;;;;;5076271;28;20050;-80
2024/01/15 05:06:50;;;;;;;9.25;3.97;;;;;;;;;;5080039;28;20085;-78
2024/01/15 05:09:18;;;;;;;9.25;4.10;;;;;;;;;;5081434;28;20048;-80
2024/01/15 05:11:47;;;;;;;7.18;3.60;;;;;;;;;;5085398;28;20409;-79
2024/01/15 05:14:17;;;;;;;6.45;3.30;;;;;;;;;;5090980;28;20040;-79
2024/01/15 05:16:48;;;;;;;7.03;3.30;;;;;;;;;;5087929;28;20054;-78
2024/01/15 05:19:17;;;;;;;5.95;3.15;;;;;;;;;;5086695;28;20770;-79
2024/01/15 05:21:45;;;;;;;4.82;3.20;;;;;;;;;;5089870;28;20048;-78
2024/01/15 05:24:14;;;;;;;6.45;3.65;;;;;;;;;;5088585;28;20814;-78
2024/01/15 05:26:42;;;;;;;8.80;3.95;;;;;;;;;;5088549;28;20044;-78
2024/01/15 05:29:11;;;;;;;5.32;3.40;;;;;;;;;;5082648;28;20055;-79
2024/01/15 05:31:40;;;;;;;6.65;3.58;;;;;;;;;;5085043;28;20079;-79
2024/01/15 05:34:09;;;;;;;5.75;2.90;;;;;;;;;;5089683;28;20382;-79
2024/01/15 05:36:38;;;;;;;4.40;3.00;;;;;;;;;;5090966;28;20044;-78
2024/01/15 05:39:06;;;;;;;6.40;3.25;;;;;;;;;;5084933;28;20059;-77
2024/01/15 05:41:35;;;;;;;8.25;3.53;;;;;;;;;;5088892;28;20048;-78
2024/01/15 05:44:03;;;;;;;6.35;3.28;;;;;;;;;;5090492;28;20109;-77
2024/01/15 05:46:31;;;;;;;7.07;3.03;;;;;;;;;;5090294;28;20461;-78
2024/01/15 05:49:01;;;;;;;8.88;3.55;;;;;;;;;;5089282;28;20085;-78
2024/01/15 05:51:29;;;;;;;5.80;3.17;;;;;;;;;;5088125;28;20048;-77
2024/01/15 05:53:58;;;;;;;4.45;2.65;;;;;;;;;;5085222;28;20077;-78
2024/01/15 05:56:26;;;;;;;6.50;3.42;;;;;;;;;;5088753;28;20047;-78
2024/01/15 05:58:55;;;;;;;6.40;3.05;;;;;;;;;;5088406;28;20075;-78
2024/01/15 06:01:23;;;;;;;4.82;3.03;;;;;;;;;;5085587;28;20044;-76
2024/01/15 06:03:52;;;;;;;7.53;3.45;;;;;;;;;;5082885;28;20098;-75
2024/01/15 06:06:21;;;;;;;6.32;3.03;;;;;;;;;;5088580;28;20535;-77
2024/01/15 06:08:50;;;;;;;5.70;2.53;;;;;;;;;;5081195;28;20157;-77
2024/01/15 06:11:18;;;;;;;6.45;3.47;;;;;;;;;;5087606;28;20570;-77
2024/01/15 06:13:47;;;;;;;5.30;3.05;;;;;;;;;;5087318;28;20312;-78
2024/01/15 06:16:16;;;;;;;5.63;3.13;;;;;;;;;;5089811;28;20048;-76
2024/01/15 06:18:45;;;;;;;6.38;3.25;;;;;;;;;;5085993;28;20067;-77
2024/01/15 06:21:14;;;;;;;5.18;2.83;;;;;;;;;;5089116;28;20154;-77
2024/01/15 06:23:44;;;;;;;6.18;3.17;;;;;;;;;;5089292;28;20050;-77
2024/01/15 06:26:13;;;;;;;5.93;2.90;;;;;;;;;;5085759;28;20125;-75
2024/01/15 06:28:41;;;;;;;7.35;3.10;;;;;;;;;;5087546;28;20097;-77
2024/01/15 06:31:10;;;;;;;4.40;2.38;;;;;;;;;;5087148;28;20044;-76
2024/01/15 06:33:39;;;;;;;7.85;2.80;;;;;;;;;;5089593;28;20097;-77
2024/01/15 06:36:08;;;;;;;5.03;2.67;;;;;;;;;;5082501;28;20041;-77
2024/01/15 06:38:36;;;;;;;6.15;2.85;;;;;;;;;;5082930;28;20051;-77
2024/01/15 06:41:06;;;;;;;5.70;2.42;;;;;;;;;;5085961;28;20052;-77
2024/01/15 06:43:35;;;;;;;5.07;3.03;;;;;;;;;;5077512;28;20060;-76
2024/01/15 06:46:03;;;;;;;5.28;2.83;;;;;;;;;;5081139;28;20040;-77
2024/01/15 06:48:35;;;;;;;5.65;2.80;;;;;;;;;;5088411;28;20393;-77
2024/01/15 06:51:04;;;;;;;4.57;2.83;;;;;;;;;;5080814;28;20051;-77
2024/01/15 06:53:33;;;;;;;4.30;2.50;;;;;;;;;;5089608;28;20054;-77
2024/01/15 06:56:01;;;;;;;3.70;2.17;;;;;;;;;;5086346;28;20114;-77
2024/01/15 06:58:32;;;;;;;6.88;2.92;;;;;;;;;;5083201;28;20501;-76
2024/01/15 07:01:01;;;;;;;5.05;2.80;;;;;;;;;;5070200;28;20052;-77
2024/01/15 07:03:30;;;;;;;3.78;2.20;;;;;;;;;;5082326;28;20055;-77
2024/01/15 07:05:58;;;;;;;4.47;2.67;;;;;;;;;;5086711;28;20404;-76
2024/01/15 07:08:27;;;;;;;5.30;2.70;;;;;;;;;;5077973;28;20147;-76
2024/01/15 07:10:55;;;;;;;4.15;2.40;;;;;;;;;;5089186;28;20047;-77
2024/01/15 07:13:24;;;;;;;4.03;2.67;;;;;;;;;;5089666;28;20570;-77
2024/01/15 07:15:53;;;;;;;4.97;2.63;;;;;;;;;;5088670;28;20048;-77
2024/01/15 07:18:23;;;;;;;4.18;2.60;;;;;;;;;;5079083;28;20212;-76
2024/01/15 07:20:51;;;;;;;4.70;2.63;;;;;;;;;;5082751;28;20113;-76
2024/01/15 07:23:20;;;;;;;4.28;2.65;;;;;;;;;;5089201;28;20644;-77
2024/01/15 07:25:48;;;;;;;5.03;2.85;;;;;;;;;;5088776;28;20051;-77
2024/01/15 07:28:17;;;;;;;3.58;2.25;;;;;;;;;;5082388;28;20080;-77
2024/01/15 07:30:45;;;;;;;6.65;3.58;;;;;;;;;;5072059;28;20048;-76
2024/01/15 07:33:16;;;;;;;6.63;3.10;;;;;;;;;;5078241;28;20422;-77
2024/01/15 07:35:44;;;;;;;3.63;2.10;;;;;;;;;;5086316;28;20089;-76
2024/01/15 07:38:13;;;;;;;3.75;2.50;;;;;;;;;;5088946;28;20044;-78
2024/01/15 07:40:41;;;;;;;9.38;3.20;;;;;;;;;;5082532;28;20039;-77
2024/01/15 07:43:10;;;;;;;5.85;2.92;;;;;;;;;;5079220;28;20045;-77
2024/01/15 07:45:38;;;;;;;4.85;2.65;;;;;;;;;;5078637;28;20056;-77
2024/01/15 07:48:09;;;;;;;6.47;2.42;;;;;;;;;;5077899;28;20510;-77
2024/01/15 07:50:39;;;;;;;6.75;3.20;;;;;;;;;;5077507;28;20036;-76
2024/01/15 07:53:07;;;;;;;7.75;3.17;;;;;;;;;;5084181;28;20048;-75
2024/01/15 07:55:36;;;;;;;5.30;2.85;;;;;;;;;;5084877;28;20098;-76
2024/01/15 07:58:05;;;;;;;5.60;3.20;;;;;;;;;;5092149;28;20039;-77
2024/01/15 08:00:43;;;;;;;3.67;2.35;;;;;;;;;;5084853;28;20188;-76
2024/01/15 08:03:12;;;;;;;6.95;3.13;;;;;;;;;;5076071;28;20478;-77
2024/01/15 08:05:41;;;;;;;5.07;2.90;;;;;;;;;;5078736;28;20064;-78
2024/01/15 08:08:10;;;;;;;5.68;3.03;;;;;;;;;;5091839;28;20086;-77
2024/01/15 08:10:38;;;;;;;6.68;3.45;;;;;;;;;;5072621;28;20037;-77
2024/01/15 08:13:09;;;;;;;6.53;2.85;;;;;;;;;;5082354;28;20135;-76
2024/01/15 08:15:37;;;;;;;4.40;2.90;;;;;;;;;;5077002;28;20412;-77
2024/01/15 08:18:06;;;;;;;3.85;2.45;;;;;;;;;;5093099;28;20051;-76
2024/01/15 08:20:35;;;;;;;9.75;3.20;;;;;;;;;;5092032;28;20050;-76
2024/01/15 08:23:05;;;;;;;4.45;2.38;;;;;;;;;;5089203;28;20044;-78
2024/01/15 08:25:33;;;;;;;5.40;3.22;;;;;;;;;;5075780;28;20128;-77
2024/01/15 08:28:02;;;;;;;8.88;4.22;;;;;;;;;;5088923;28;20040;-78
2024/01/15 08:30:30;;;;;;;6.57;3.67;;;;;;;;;;5095369;28;20044;-78
2024/01/15 08:32:59;;;;;;;8.00;3.17;;;;;;;;;;5092585;28;20072;-77
2024/01/15 08:35:38;;;;;;;5.85;3.75;;;;;;;;;;5092524;28;20048;-77
2024/01/15 08:38:08;;;;;;;5.45;3.08;;;;;;;;;;5087019;28;20101;-78
2024/01/15 08:40:36;;;;;;;4.95;2.72;;;;;;;;;;5086608;28;20047;-78
2024/01/15 08:43:06;;;;;;;5.35;2.67;;;;;;;;;;5087075;28;20048;-77
2024/01/15 08:45:35;;;;;;;8.85;3.15;;;;;;;;;;5087875;28;20135;-77
2024/01/15 08:48:03;;;;;;;4.72;2.92;;;;;;;;;;5086845;28;20060;-77
2024/01/15 08:50:32;;;;;;;6.35;3.22;;;;;;;;;;5079272;28;20129;-78
2024/01/15 08:53:01;;;;;;;5.18;3.28;;;;;;;;;;5091280;28;20051;-78
2024/01/15 08:55:31;;;;;;;4.25;2.13;;;;;;;;;;5089154;28;20064;-78
2024/01/15 08:57:59;;;;;;;6.18;2.72;;;;;;;;;;5090936;28;20071;-78
2024/01/15 09:00:28;;;;;;;6.75;2.92;;;;;;;;;;5086652;28;20059;-79
2024/01/15 09:02:57;;;;;;;9.48;3.63;;;;;;;;;;5092701;28;20048;-77
2024/01/15 09:05:25;;;;;;;5.78;2.97;;;;;;;;;;5091369;28;20048;-68
2024/01/15 09:07:54;;;;;;;2.88;2.28;;;;;;;;;;5079768;28;20059;-68
2024/01/15 09:10:22;;;;;;;6.32;3.33;;;;;;;;;;5085197;28;20052;-68
2024/01/15 09:12:52;;;;;;;5.47;2.42;;;;;;;;;;5086724;28;20044;-68
2024/01/15 09:15:21;;;;;;;7.22;3.42;;;;;;;;;;5089855;28;20109;-70
2024/01/15 09:17:49;;;;;;;8.30;3.33;;;;;;;;;;5088897;28;20557;-70
2024/01/15 09:20:18;;;;;;;2.67;2.00;;;;;;;;;;5090794;28;20044;-71
2024/01/15 09:22:46;;;;;;;7.40;3.17;;;;;;;;;;5079064;28;20049;-67
2024/01/15 09:25:15;;;;;;;3.88;2.22;;;;;;;;;;5087625;28;20102;-67
2024/01/15 09:27:43;;;;;;;7.28;3.38;;;;;;;;;;5091023;28;20047;-68
2024/01/15 09:30:14;;;;;;;6.57;3.03;;;;;;;;;;5086826;28;20495;-69
2024/01/15 09:32:43;;;;;;;4.55;3.00;;;;;;;;;;5078246;28;20048;-68
2024/01/15 09:35:11;;;;;;;5.05;2.95;;;;;;;;;;5087704;28;20044;-68
2024/01/15 09:37:41;;;;;;;5.35;2.70;;;;;;;;;;5091066;28;20059;-70
2024/01/15 09:40:16;;;;;;;8.57;3.90;;;;;;;;;;5086317;28;20047;-68
2024/01/15 09:42:46;;;;;;;4.72;2.47;;;;;;;;;;5088521;28;20123;-67
2024/01/15 09:45:16;;;;;;;4.85;2.75;;;;;;;;;;5089534;28;20603;-68
2024/01/15 09:47:45;;;;;;;7.13;3.20;;;;;;;;;;5089215;28;20068;-67
2024/01/15 09:50:15;;;;;;;7.30;3.05;;;;;;;;;;5075577;28;20052;-67
2024/01/15 09:52:45;;;;;;;5.95;3.22;;;;;;;;;;5079843;28;20047;-67
2024/01/15 09:55:15;;;;;;;4.97;3.20;;;;;;;;;;5089934;28;20063;-70
2024/01/15 09:57:45;;;;;;;4.78;3.22;;;;;;;;;;5079912;28;20131;-67
2024/01/15 10:00:16;;;;;;;7.25;3.08;;;;;;;;;;5091503;28;20040;-68
2024/01/15 10:02:44;;;;;;;6.10;2.70;;;;;;;;;;5085411;28;20035;-72
2024/01/15 10:05:13;;;;;;;6.18;2.85;;;;;;;;;;5085751;28;20041;-69
2024/01/15 10:07:42;;;;;;;4.22;2.30;;;;;;;;;;5087235;28;20613;-67
2024/01/15 10:10:12;;;;;;;4.47;2.38;;;;;;;;;;5091003;28;20055;-67
2024/01/15 10:12:41;;;;;;;5.63;2.95;;;;;;;;;;5087844;28;20499;-67
2024/01/15 10:15:11;;;;;;;5.32;2.97;;;;;;;;;;5090519;28;20544;-67
2024/01/15 10:17:41;;;;;;;4.63;2.15;;;;;;;;;;5085621;28;20123;-73
2024/01/15 10:20:11;;;;;;;4.55;2.58;;;;;;;;;;5087859;28;20485;-69
2024/01/15 10:22:42;;;;;;;5.50;2.35;;;;;;;;;;5090719;28;20101;-68
2024/01/15 10:25:14;;;;;;;5.55;2.60;;;;;;;;;;5087829;28;20048;-69
2024/01/15 10:27:42;;;;;;;4.53;2.42;;;;;;;;;;5084646;28;20453;-70
2024/01/15 10:30:13;;;;;;;2.28;1.92;;;;;;;;;;5084350;28;20048;-69
2024/01/15 10:32:50;;;;;;;3.80;2.20;;;;;;;;;;5074955;28;20168;-71
2024/01/15 10:35:19;;;;;;;4.63;2.55;;;;;;;;;;5086759;28;20484;-68
2024/01/15 10:37:49;;;;;;;3.35;1.73;;;;;;;;;;5089892;28;20082;-68
2024/01/15 10:40:17;;;;;;;4.10;2.38;;;;;;;;;;5084993;28;20045;-69
2024/01/15 10:42:47;;;;;;;3.22;2.35;;;;;;;;;;5085034;28;20129;-69
2024/01/15 10:45:15;;;;;;;4.65;2.08;;;;;;;;;;5090148;28;20047;-68
2024/01/15 10:47:45;;;;;;;4.18;2.08;;;;;;;;;;5089542;28;20472;-68
2024/01/15 10:50:14;;;;;;;3.67;2.25;;;;;;;;;;5076940;28;20052;-68
2024/01/15 10:52:43;;;;;;;3.92;2.13;;;;;;;;;;5088474;28;20550;-68
2024/01/15 10:55:11;;;;;;;3.63;2.13;;;;;;;;;;5089876;28;20095;-68
2024/01/15 10:57:47;;;;;;;4.47;2.17;;;;;;;;;;5079479;28;20135;-67
2024/01/15 11:00:15;;;;;;;6.60;2.90;;;;;;;;;;5072019;28;20090;-67
2024/01/15 11:02:45;;;;;;;2.83;1.85;;;;;;;;;;5085429;28;20078;-67
2024/01/15 11:05:14;;;;;;;6.63;3.08;;;;;;;;;;5085865;28;20332;-69
2024/01/15 11:07:43;;;;;;;2.78;2.10;;;;;;;;;;5080919;28;20118;-69
2024/01/15 11:10:36;;;;;;;7.70;4.10;;;;;;;;;;5089483;28;20076;-68
2024/01/15 11:13:05;;;;;;;11.80;5.10;;;;;;;;;;5089050;28;20047;-68
2024/01/15 11:15:33;;;;;;;5.45;3.78;;;;;;;;;;5083965;28;20105;-69
2024/01/15 11:18:05;;;;;;;5.15;2.78;;;;;;;;;;5088467;28;20496;-68
2024/01/15 11:20:34;;;;;;;5.32;2.05;;;;;;;;;;5089830;28;20044;-67
2024/01/15 11:23:02;;;;;;;5.47;2.65;;;;;;;;;;5089058;28;20075;-68
2024/01/15 11:25:37;;;;;;;3.45;2.28;;;;;;;;;;5082806;28;20110;-68
2024/01/15 11:28:05;;;;;;;;;;;;;;;;;;5082402;28;20059;-68
2024/01/15 11:30:36;;;;;;;3.67;2.17;;;;;;;;;;5089689;28;19920;-68
2024/01/15 11:33:07;;;;;;;5.50;2.15;;;;;;;;;;5089138;28;20075;-68
2024/01/15 11:35:51;;;;;;;7.65;3.10;;;;;;;;;;5081479;28;20056;-69
2024/01/15 11:38:30;;;;;;;5.50;2.45;;;;;;;;;;5085558;28;20408;-69
2024/01/15 11:41:01;;;;;;;5.20;2.22;;;;;;;;;;5079864;28;20445;-69
2024/01/15 11:43:32;;;;;;;6.53;2.50;;;;;;;;;;5080696;28;20071;-66
2024/01/15 11:46:04;;;;;;;4.50;2.33;;;;;;;;;;5079077;28;20052;-75
2024/01/15 11:48:40;;;;;;;5.30;2.63;;;;;;;;;;5083952;28;20072;-75
2024/01/15 11:51:09;;;;;;;6.60;2.80;;;;;;;;;;5079931;28;20051;-75
2024/01/15 11:53:38;;;;;;;5.25;3.13;;;;;;;;;;5087293;28;20044;-74
2024/01/15 11:56:13;;;;;;;3.72;2.40;;;;;;;;;;5084576;28;20060;-76
2024/01/15 11:58:42;;;;;;;5.45;2.38;;;;;;;;;;5074258;28;20114;-77
2024/01/15 12:01:10;;;;;;;4.25;2.80;;;;;;;;;;5085279;28;20041;-75
2024/01/15 12:03:40;;;;;;;5.38;3.13;;;;;;;;;;5104199;28;20055;-74
2024/01/15 12:06:09;;;;;;;4.10;2.10;;;;;;;;;;5089187;28;20488;-75
2024/01/15 12:08:37;;;;;;;4.38;2.55;;;;;;;;;;5086270;28;20041;-75
2024/01/15 12:11:08;;;;;;;6.20;2.15;;;;;;;;;;5079566;28;20036;-74
2024/01/15 12:13:36;;;;;;;4.72;2.22;;;;;;;;;;5087202;28;20051;-76
2024/01/15 12:16:05;;;;;;;5.05;2.38;;;;;;;;;;5092779;28;20100;-75
2024/01/15 12:18:34;;;;;;;3.70;2.05;;;;;;;;;;5084685;28;20060;-76
2024/01/15 12:21:05;;;;;;;4.10;2.00;;;;;;;;;;5098826;28;20450;-77
2024/01/15 12:23:35;;;;;;;3.92;1.92;;;;;;;;;;5090585;28;20462;-77
2024/01/15 12:26:03;;;;;;;3.63;2.25;;;;;;;;;;5092431;28;20048;-76
2024/01/15 12:28:32;;;;;;;5.15;2.15;;;;;;;;;;5088884;28;20200;-76
2024/01/15 12:31:05;;;;;;;2.45;1.70;;;;;;;;;;5078736;28;20455;-76
2024/01/15 12:33:35;;;;;;;3.13;1.80;;;;;;;;;;5093502;28;20044;-77
2024/01/15 12:36:05;;;;;;;2.83;1.90;;;;;;;;;;5087328;28;20044;-75
2024/01/15 12:38:34;;;;;;;5.35;2.10;;;;;;;;;;5089939;28;20097;-71
2024/01/15 12:41:02;;;;;;;2.90;1.77;;;;;;;;;;5080336;28;20052;-71
2024/01/15 12:43:31;;;;;;;3.75;2.10;;;;;;;;;;5078896;28;20495;-72
2024/01/15 12:45:59;;;;;;;2.35;1.80;;;;;;;;;;5080632;28;20045;-72
2024/01/15 12:48:28;;;;;;;2.92;1.50;;;;;;;;;;5081313;28;20052;-72
2024/01/15 12:50:57;;;;;;;2.28;1.58;;;;;;;;;;5087907;28;20051;-72
2024/01/15 12:53:27;;;;;;;1.58;1.45;;;;;;;;;;5081210;28;20048;-71
2024/01/15 12:55:55;;;;;;;3.28;1.60;;;;;;;;;;5088405;28;20488;-71
2024/01/15 12:58:23;;;;;;;4.78;1.80;;;;;;;;;;5085304;28;20036;-72
2024/01/15 13:00:52;;;;;;;1.75;1.50;;;;;;;;;;5091914;28;20050;-73
2024/01/15 13:03:20;;;;;;;3.75;1.50;;;;;;;;;;5081777;28;20048;-71
2024/01/15 13:05:49;;;;;;;5.28;1.73;;;;;;;;;;5091193;28;20065;-71
2024/01/15 13:08:18;;;;;;;6.22;1.70;;;;;;;;;;5097121;28;20339;-71
2024/01/15 13:10:48;;;;;;;3.50;1.73;;;;;;;;;;5080652;28;20072;-70
2024/01/15 13:13:16;;;;;;;3.03;1.90;;;;;;;;;;5088498;28;20094;-71
2024/01/15 13:15:45;;;;;;;3.35;1.90;;;;;;;;;;5086963;28;20382;-72
2024/01/15 13:18:13;;;;;;;3.22;1.80;;;;;;;;;;5090412;28;20056;-72
2024/01/15 13:20:41;;;;;;;3.10;1.80;;;;;;;;;;5091642;28;20070;-70
2024/01/15 13:23:11;;;;;;;5.97;2.10;;;;;;;;;;5090828;28;20099;-74
2024/01/15 13:25:40;;;;;;;3.10;1.95;;;;;;;;;;5091313;28;20097;-70
2024/01/15 13:28:09;;;;;;;7.55;2.53;;;;;;;;;;5084889;28;20040;-72
2024/01/15 13:30:38;;;;;;;3.10;2.00;;;;;;;;;;5077264;28;20504;-72
2024/01/15 13:33:08;;;;;;;2.13;1.58;;;;;;;;;;5076404;28;20047;-72
2024/01/15 13:35:37;;;;;;;3.95;2.15;;;;;;;;;;5090182;28;20535;-72
2024/01/15 13:38:05;;;;;;;5.03;2.13;;;;;;;;;;5085441;28;20102;-73
2024/01/15 13:40:33;;;;;;;3.50;1.90;;;;;;;;;;5082870;28;20052;-72
2024/01/15 13:43:02;;;;;;;3.67;2.58;;;;;;;;;;5085114;28;20708;-72
2024/01/15 13:45:34;;;;;;;3.95;2.47;;;;;;;;;;5084296;28;20043;-73
2024/01/15 13:48:05;;;;;;;5.60;2.33;;;;;;;;;;5088897;28;20060;-73
2024/01/15 13:50:34;;;;;;;2.80;1.83;;;;;;;;;;5082530;28;20051;-73
2024/01/15 13:53:03;;;;;;;3.88;2.40;;;;;;;;;;5087897;28;20055;-73
2024/01/15 13:55:32;;;;;;;4.45;2.50;;;;;;;;;;5080417;28;20044;-73
2024/01/15 13:58:00;;;;;;;3.80;1.88;;;;;;;;;;5084604;28;20332;-73
2024/01/15 14:00:29;;;;;;;6.30;2.50;;;;;;;;;;5086583;28;20045;-73
2024/01/15 14:02:59;;;;;;;3.75;2.33;;;;;;;;;;5083407;28;20040;-73
2024/01/15 14:05:27;;;;;;;5.10;2.45;;;;;;;;;;5084588;28;20152;-73
2024/01/15 14:07:55;;;;;;;3.88;2.22;;;;;;;;;;5088087;28;20093;-71
2024/01/15 14:10:24;;;;;;;3.63;1.95;;;;;;;;;;5082097;28;20052;-72
2024/01/15 14:12:53;;;;;;;3.83;2.50;;;;;;;;;;5088194;28;20512;-71
2024/01/15 14:15:21;;;;;;;3.05;2.35;;;;;;;;;;5082366;28;20044;-71
2024/01/15 14:17:51;;;;;;;3.50;2.05;;;;;;;;;;5083372;28;20060;-72
2024/01/15 14:20:20;;;;;;;4.63;2.83;;;;;;;;;;5077274;28;20889;-72
2024/01/15 14:22:50;;;;;;;3.97;2.50;;;;;;;;;;5088662;28;20066;-72
2024/01/15 14:25:18;;;;;;;5.05;3.08;;;;;;;;;;5086011;28;20079;-71
2024/01/15 14:27:47;;;;;;;3.35;2.10;;;;;;;;;;5086175;28;20047;-71
2024/01/15 14:30:16;;;;;;;6.25;2.53;;;;;;;;;;5087859;28;20055;-72
2024/01/15 14:32:45;;;;;;;5.15;2.45;;;;;;;;;;5076064;28;20414;-72
2024/01/15 14:35:14;;;;;;;5.32;2.00;;;;;;;;;;5082673;28;20057;-72
2024/01/15 14:37:44;;;;;;;4.00;2.33;;;;;;;;;;5085591;28;20080;-72
2024/01/15 14:40:15;;;;;;;2.58;1.80;;;;;;;;;;5088179;28;20485;-72
2024/01/15 14:42:45;;;;;;;6.10;2.70;;;;;;;;;;5084458;28;20044;-73
2024/01/15 14:45:14;;;;;;;4.07;2.33;;;;;;;;;;5079436;28;20059;-72
2024/01/15 14:47:44;;;;;;;6.78;3.03;;;;;;;;;;5073386;28;20046;-72
2024/01/15 14:50:13;;;;;;;3.78;2.22;;;;;;;;;;5080458;28;20157;-71
2024/01/15 14:52:42;;;;;;;7.75;2.60;;;;;;;;;;5085059;28;20044;-72
2024/01/15 14:55:12;;;;;;;3.83;2.03;;;;;;;;;;5084241;28;20067;-72